createdAt,value
2018-01-19T00:00:59.090Z,3.80
2018-01-19T00:02:05.766Z,3.76
2018-01-19T00:03:12.017Z,3.73
2018-01-19T00:04:18.294Z,3.72
2018-01-19T00:05:24.530Z,3.73
2018-01-19T00:06:30.786Z,3.79
2018-01-19T00:07:37.069Z,3.68
2018-01-19T00:08:45.286Z,3.69
2018-01-19T00:09:52.054Z,3.67
2018-01-19T00:10:58.262Z,3.64
2018-01-19T00:12:04.139Z,3.63
2018-01-19T00:13:10.038Z,3.66
2018-01-19T00:14:20.293Z,3.76
2018-01-19T00:15:26.777Z,3.82
2018-01-19T00:16:32.983Z,3.83
2018-01-19T00:17:42.148Z,3.78
2018-01-19T00:18:48.354Z,3.78
2018-01-19T00:19:54.582Z,3.89
2018-01-19T00:21:00.606Z,3.83
2018-01-19T00:22:06.883Z,3.86
2018-01-19T00:23:19.717Z,3.82
2018-01-19T00:24:25.944Z,3.79
2018-01-19T00:25:38.309Z,3.70
2018-01-19T00:26:44.766Z,3.77
2018-01-19T00:27:50.977Z,3.80
2018-01-19T00:28:57.234Z,3.83
2018-01-19T00:30:03.540Z,3.85
2018-01-19T00:31:09.774Z,3.88
2018-01-19T00:32:15.863Z,3.90
2018-01-19T00:33:22.091Z,3.85
2018-01-19T00:34:28.210Z,3.81
2018-01-19T00:35:35.216Z,3.87
2018-01-19T00:36:41.410Z,3.83
2018-01-19T00:37:47.330Z,3.79
2018-01-19T00:38:55.891Z,3.85
2018-01-19T00:40:02.132Z,3.85
2018-01-19T00:41:08.350Z,3.86
2018-01-19T00:42:14.544Z,3.77
2018-01-19T00:43:20.766Z,3.78
2018-01-19T00:44:26.909Z,3.75
2018-01-19T00:45:33.056Z,3.84
2018-01-19T00:46:39.299Z,3.81
2018-01-19T00:47:45.518Z,3.80
2018-01-19T00:48:51.634Z,3.83
2018-01-19T00:49:57.779Z,3.87
2018-01-19T00:51:04.453Z,3.82
2018-01-19T00:52:10.619Z,3.88
2018-01-19T00:53:16.844Z,3.91
2018-01-19T00:54:23.212Z,3.91
2018-01-19T00:55:29.438Z,3.93
2018-01-19T00:56:35.688Z,3.91
2018-01-19T00:57:41.897Z,3.84
2018-01-19T00:58:48.132Z,3.87
2018-01-19T00:59:54.290Z,3.79
2018-01-19T01:01:00.487Z,3.75
2018-01-19T01:02:06.614Z,3.69
2018-01-19T01:03:12.727Z,3.69
2018-01-19T01:04:18.966Z,3.70
2018-01-19T01:05:25.300Z,3.78
2018-01-19T01:06:31.490Z,3.79
2018-01-19T01:07:37.719Z,3.80
2018-01-19T01:08:44.023Z,3.85
2018-01-19T01:09:50.207Z,3.89
2018-01-19T01:10:56.385Z,3.94
2018-01-19T01:12:02.680Z,3.90
2018-01-19T01:13:19.783Z,3.91
2018-01-19T01:14:25.994Z,3.90
2018-01-19T01:15:32.155Z,3.91
2018-01-19T01:16:38.419Z,3.89
2018-01-19T01:17:44.602Z,3.90
2018-01-19T01:18:50.885Z,3.85
2018-01-19T01:19:57.151Z,3.90
2018-01-19T01:21:03.387Z,3.95
2018-01-19T01:22:09.717Z,4.01
2018-01-19T01:23:15.935Z,3.99
2018-01-19T01:24:22.296Z,3.99
2018-01-19T01:25:28.750Z,4.02
2018-01-19T01:26:34.702Z,4.02
2018-01-19T01:27:40.850Z,3.96
2018-01-19T01:28:47.129Z,3.99
2018-01-19T01:29:53.315Z,4.02
2018-01-19T01:30:59.552Z,3.96
2018-01-19T01:32:05.807Z,3.93
2018-01-19T01:33:11.790Z,3.89
2018-01-19T01:34:18.017Z,3.85
2018-01-19T01:35:24.256Z,3.86
2018-01-19T01:36:31.263Z,3.87
2018-01-19T01:37:37.972Z,3.90
2018-01-19T01:38:44.289Z,3.92
2018-01-19T01:39:50.512Z,3.90
2018-01-19T01:40:56.689Z,3.92
2018-01-19T01:42:02.916Z,3.92
2018-01-19T01:43:08.903Z,3.91
2018-01-19T01:44:15.132Z,3.89
2018-01-19T01:45:21.272Z,3.94
2018-01-19T01:46:27.223Z,3.98
2018-01-19T01:47:33.694Z,3.98
2018-01-19T01:48:40.002Z,4.02
2018-01-19T01:49:46.489Z,4.12
2018-01-19T01:50:52.694Z,4.13
2018-01-19T01:51:58.944Z,4.05
2018-01-19T01:53:05.345Z,4.08
2018-01-19T01:54:12.354Z,4.10
2018-01-19T01:55:18.562Z,4.13
2018-01-19T01:56:24.750Z,4.09
2018-01-19T01:57:31.088Z,4.16
2018-01-19T01:58:37.972Z,4.07
2018-01-19T01:59:44.162Z,4.08
2018-01-19T02:00:50.334Z,4.13
2018-01-19T02:01:56.615Z,4.22
2018-01-19T02:03:02.890Z,4.13
2018-01-19T02:04:09.159Z,4.09
2018-01-19T02:05:15.308Z,4.03
2018-01-19T02:06:21.515Z,4.02
2018-01-19T02:07:27.616Z,3.99
2018-01-19T02:08:33.900Z,3.98
2018-01-19T02:09:39.903Z,3.92
2018-01-19T02:10:46.233Z,3.92
2018-01-19T02:11:52.600Z,4.00
2018-01-19T02:12:58.745Z,3.99
2018-01-19T02:14:04.938Z,4.04
2018-01-19T02:15:11.214Z,3.99
2018-01-19T02:16:17.471Z,3.99
2018-01-19T02:17:23.068Z,3.96
2018-01-19T02:18:34.421Z,3.99
2018-01-19T02:19:40.420Z,4.00
2018-01-19T02:20:46.830Z,4.03
2018-01-19T02:21:53.143Z,4.01
2018-01-19T02:23:00.010Z,4.00
2018-01-19T02:24:11.664Z,3.99
2018-01-19T02:25:17.860Z,3.97
2018-01-19T02:26:24.059Z,3.92
2018-01-19T02:27:30.379Z,3.93
2018-01-19T02:28:36.516Z,3.97
2018-01-19T02:29:42.701Z,3.96
2018-01-19T02:30:48.873Z,4.03
2018-01-19T02:31:55.761Z,4.05
2018-01-19T02:33:02.101Z,4.03
2018-01-19T02:34:08.470Z,4.02
2018-01-19T02:35:14.772Z,4.08
2018-01-19T02:36:20.728Z,4.00
2018-01-19T02:37:27.006Z,4.02
2018-01-19T02:38:33.239Z,4.01
2018-01-19T02:39:39.494Z,3.97
2018-01-19T02:40:45.748Z,3.91
2018-01-19T02:41:51.766Z,3.93
2018-01-19T02:42:57.689Z,3.98
2018-01-19T02:44:04.058Z,4.02
2018-01-19T02:45:10.473Z,4.02
2018-01-19T02:46:16.687Z,4.11
2018-01-19T02:47:22.927Z,4.04
2018-01-19T02:48:29.496Z,4.02
2018-01-19T02:49:35.807Z,3.95
2018-01-19T02:50:42.062Z,3.95
2018-01-19T02:51:48.229Z,4.00
2018-01-19T02:52:54.350Z,4.01
2018-01-19T02:54:00.522Z,4.07
2018-01-19T02:55:06.686Z,4.02
2018-01-19T02:56:12.935Z,3.95
2018-01-19T02:57:19.832Z,4.02
2018-01-19T02:58:25.994Z,4.01
2018-01-19T02:59:32.169Z,3.99
2018-01-19T03:00:38.450Z,4.02
2018-01-19T03:01:44.567Z,4.03
2018-01-19T03:02:50.714Z,4.00
2018-01-19T03:03:57.200Z,4.02
2018-01-19T03:05:03.422Z,3.94
2018-01-19T03:06:09.600Z,3.98
2018-01-19T03:07:18.220Z,3.96
2018-01-19T03:08:24.609Z,3.99
2018-01-19T03:09:30.837Z,4.02
2018-01-19T03:10:37.157Z,4.02
2018-01-19T03:11:43.489Z,3.98
2018-01-19T03:12:49.651Z,4.00
2018-01-19T03:13:55.868Z,3.87
2018-01-19T03:15:02.053Z,3.88
2018-01-19T03:16:08.243Z,3.95
2018-01-19T03:17:14.740Z,4.00
2018-01-19T03:18:20.947Z,3.93
2018-01-19T03:19:27.273Z,3.94
2018-01-19T03:20:33.491Z,4.02
2018-01-19T03:21:39.729Z,4.01
2018-01-19T03:22:46.004Z,3.96
2018-01-19T03:23:52.251Z,3.89
2018-01-19T03:24:59.296Z,3.92
2018-01-19T03:26:05.526Z,3.92
2018-01-19T03:27:16.615Z,3.96
2018-01-19T03:28:22.866Z,4.05
2018-01-19T03:29:29.194Z,4.14
2018-01-19T03:30:35.470Z,4.13
2018-01-19T03:31:41.694Z,4.08
2018-01-19T03:32:47.962Z,4.00
2018-01-19T03:33:54.115Z,4.03
2018-01-19T03:35:00.440Z,4.04
2018-01-19T03:36:06.662Z,4.10
2018-01-19T03:37:12.873Z,4.17
2018-01-19T03:38:19.142Z,4.19
2018-01-19T03:39:25.445Z,4.18
2018-01-19T03:40:31.757Z,4.22
2018-01-19T03:41:38.092Z,4.26
2018-01-19T03:42:44.386Z,4.21
2018-01-19T03:43:50.590Z,4.17
2018-01-19T03:44:57.414Z,4.20
2018-01-19T03:46:04.414Z,4.19
2018-01-19T03:47:10.582Z,4.06
2018-01-19T03:48:16.898Z,4.02
2018-01-19T03:49:23.267Z,4.00
2018-01-19T03:50:29.361Z,4.04
2018-01-19T03:51:36.563Z,4.06
2018-01-19T03:52:42.958Z,4.00
2018-01-19T03:53:49.219Z,4.00
2018-01-19T03:54:55.457Z,4.05
2018-01-19T03:56:01.497Z,4.02
2018-01-19T03:57:07.763Z,4.05
2018-01-19T03:58:14.000Z,3.97
2018-01-19T03:59:19.929Z,3.98
2018-01-19T04:00:26.136Z,3.93
2018-01-19T04:01:32.580Z,3.99
2018-01-19T04:02:39.151Z,3.95
2018-01-19T04:03:45.455Z,3.98
2018-01-19T04:04:51.745Z,3.85
2018-01-19T04:05:58.021Z,3.88
2018-01-19T04:07:04.261Z,3.86
2018-01-19T04:08:10.472Z,3.89
2018-01-19T04:09:16.309Z,3.96
2018-01-19T04:10:22.626Z,3.95
2018-01-19T04:11:29.474Z,3.88
2018-01-19T04:12:35.929Z,3.91
2018-01-19T04:13:42.613Z,3.96
2018-01-19T04:14:49.394Z,4.01
2018-01-19T04:15:55.331Z,3.90
2018-01-19T04:17:01.635Z,3.93
2018-01-19T04:18:07.896Z,3.96
2018-01-19T04:19:13.772Z,3.99
2018-01-19T04:20:19.981Z,3.89
2018-01-19T04:21:26.293Z,3.87
2018-01-19T04:22:32.547Z,3.86
2018-01-19T04:23:38.787Z,3.89
2018-01-19T04:24:44.257Z,3.95
2018-01-19T04:25:50.614Z,3.96
2018-01-19T04:26:56.654Z,4.04
2018-01-19T04:28:03.555Z,4.00
2018-01-19T04:29:09.859Z,4.06
2018-01-19T04:30:16.333Z,4.10
2018-01-19T04:31:22.894Z,4.00
2018-01-19T04:32:30.712Z,4.01
2018-01-19T04:33:36.875Z,3.97
2018-01-19T04:34:42.988Z,3.96
2018-01-19T04:35:49.090Z,4.01
2018-01-19T04:36:55.139Z,4.01
2018-01-19T04:38:01.433Z,3.97
2018-01-19T04:39:07.664Z,3.96
2018-01-19T04:40:13.664Z,3.98
2018-01-19T04:41:19.816Z,3.98
2018-01-19T04:42:26.625Z,3.93
2018-01-19T04:43:33.469Z,3.98
2018-01-19T04:44:39.727Z,3.98
2018-01-19T04:45:45.684Z,3.91
2018-01-19T04:46:51.849Z,3.89
2018-01-19T04:47:57.866Z,3.93
2018-01-19T04:49:03.889Z,3.97
2018-01-19T04:50:10.574Z,4.03
2018-01-19T04:51:16.766Z,3.96
2018-01-19T04:52:23.032Z,3.96
2018-01-19T04:53:29.117Z,3.99
2018-01-19T04:54:35.428Z,4.02
2018-01-19T04:55:42.211Z,4.00
2018-01-19T04:56:48.501Z,4.01
2018-01-19T04:57:54.804Z,4.00
2018-01-19T04:59:01.107Z,4.03
2018-01-19T05:00:07.927Z,4.02
2018-01-19T05:01:14.303Z,4.07
2018-01-19T05:02:25.314Z,3.94
2018-01-19T05:03:32.288Z,3.89
2018-01-19T05:04:42.188Z,3.86
2018-01-19T05:05:50.743Z,3.84
2018-01-19T05:06:58.929Z,3.85
2018-01-19T05:08:07.637Z,3.88
2018-01-19T05:09:16.232Z,3.85
2018-01-19T05:10:27.867Z,3.79
2018-01-19T05:11:35.220Z,3.82
2018-01-19T05:12:42.903Z,3.74
2018-01-19T05:13:51.762Z,3.79
2018-01-19T05:14:59.087Z,3.72
2018-01-19T05:16:07.505Z,3.68
2018-01-19T05:17:14.883Z,3.69
2018-01-19T05:18:21.394Z,3.74
2018-01-19T05:19:27.634Z,3.69
2018-01-19T05:20:33.875Z,3.67
2018-01-19T05:21:40.141Z,3.73
2018-01-19T05:22:46.200Z,3.75
2018-01-19T05:23:52.413Z,3.68
2018-01-19T05:24:58.695Z,3.70
2018-01-19T05:26:04.808Z,3.67
2018-01-19T05:27:11.071Z,3.65
2018-01-19T05:28:18.305Z,3.64
2018-01-19T05:29:26.320Z,3.62
2018-01-19T05:30:32.551Z,3.67
2018-01-19T05:31:38.740Z,3.71
2018-01-19T05:32:44.953Z,3.68
2018-01-19T05:33:51.399Z,3.69
2018-01-19T05:34:58.000Z,3.71
2018-01-19T05:36:04.275Z,3.73
2018-01-19T05:37:10.505Z,3.73
2018-01-19T05:38:16.891Z,3.71
2018-01-19T05:39:23.119Z,3.69
2018-01-19T05:40:29.940Z,3.68
2018-01-19T05:41:36.184Z,3.72
2018-01-19T05:42:42.364Z,3.68
2018-01-19T05:43:48.579Z,3.67
2018-01-19T05:44:54.719Z,3.66
2018-01-19T05:46:01.006Z,3.63
2018-01-19T05:47:07.838Z,3.63
2018-01-19T05:48:14.576Z,3.57
2018-01-19T05:49:21.349Z,3.56
2018-01-19T05:50:27.932Z,3.59
2018-01-19T05:51:34.048Z,3.60
2018-01-19T05:52:40.264Z,3.57
2018-01-19T05:53:46.616Z,3.57
2018-01-19T05:54:52.905Z,3.50
2018-01-19T05:55:58.807Z,3.55
2018-01-19T05:57:05.094Z,3.58
2018-01-19T05:58:14.637Z,3.62
2018-01-19T05:59:22.042Z,3.66
2018-01-19T06:00:29.932Z,3.74
2018-01-19T06:01:37.000Z,3.68
2018-01-19T06:02:44.962Z,3.62
2018-01-19T06:03:53.380Z,3.62
2018-01-19T06:05:00.332Z,3.62
2018-01-19T06:06:07.521Z,3.59
2018-01-19T06:07:15.708Z,3.58
2018-01-19T06:08:22.973Z,3.57
2018-01-19T06:09:30.372Z,3.59
2018-01-19T06:10:39.899Z,3.60
2018-01-19T06:11:47.513Z,3.62
2018-01-19T06:12:54.931Z,3.70
2018-01-19T06:14:02.851Z,3.67
2018-01-19T06:15:11.288Z,3.76
2018-01-19T06:16:18.911Z,3.71
2018-01-19T06:17:26.200Z,3.68
2018-01-19T06:18:33.464Z,3.68
2018-01-19T06:19:40.110Z,3.67
2018-01-19T06:20:47.392Z,3.73
2018-01-19T06:21:54.411Z,3.67
2018-01-19T06:23:06.320Z,3.61
2018-01-19T06:24:13.465Z,3.72
2018-01-19T06:25:20.732Z,3.66
2018-01-19T06:26:27.857Z,3.63
2018-01-19T06:27:35.025Z,3.71
2018-01-19T06:28:42.324Z,3.71
2018-01-19T06:29:50.072Z,3.62
2018-01-19T06:30:59.047Z,3.58
2018-01-19T06:32:06.144Z,3.54
2018-01-19T06:33:13.676Z,3.47
2018-01-19T06:34:22.198Z,3.52
2018-01-19T06:35:29.414Z,3.42
2018-01-19T06:36:36.589Z,3.42
2018-01-19T06:37:44.506Z,3.53
2018-01-19T06:38:51.674Z,3.47
2018-01-19T06:39:58.946Z,3.42
2018-01-19T06:41:06.568Z,3.51
2018-01-19T06:42:14.132Z,3.42
2018-01-19T06:43:22.443Z,3.46
2018-01-19T06:44:29.978Z,3.45
2018-01-19T06:45:37.030Z,3.40
2018-01-19T06:46:44.397Z,3.41
2018-01-19T06:47:57.673Z,3.45
2018-01-19T06:49:04.917Z,3.41
2018-01-19T06:50:12.242Z,3.42
2018-01-19T06:51:18.935Z,3.42
2018-01-19T06:52:25.589Z,3.41
2018-01-19T06:53:31.841Z,3.39
2018-01-19T06:54:37.996Z,3.30
2018-01-19T06:55:44.211Z,3.35
2018-01-19T06:56:50.195Z,3.35
2018-01-19T06:57:56.412Z,3.36
2018-01-19T06:59:02.697Z,3.32
2018-01-19T07:00:08.457Z,3.37
2018-01-19T07:01:14.723Z,3.39
2018-01-19T07:02:20.954Z,3.35
2018-01-19T07:03:27.212Z,3.29
2018-01-19T07:04:33.358Z,3.41
2018-01-19T07:05:39.551Z,3.47
2018-01-19T07:06:45.784Z,3.52
2018-01-19T07:07:55.441Z,3.41
2018-01-19T07:09:03.158Z,3.33
2018-01-19T07:10:09.065Z,3.29
2018-01-19T07:11:15.293Z,3.29
2018-01-19T07:12:21.622Z,3.24
2018-01-19T07:13:27.876Z,3.28
2018-01-19T07:14:34.154Z,3.33
2018-01-19T07:15:40.457Z,3.37
2018-01-19T07:16:46.703Z,3.42
2018-01-19T07:17:52.862Z,3.45
2018-01-19T07:18:59.021Z,3.54
2018-01-19T07:20:04.594Z,3.59
2018-01-19T07:21:10.808Z,3.51
2018-01-19T07:22:16.915Z,3.43
2018-01-19T07:23:23.211Z,3.38
2018-01-19T07:24:29.257Z,3.34
2018-01-19T07:25:35.458Z,3.40
2018-01-19T07:26:41.693Z,3.33
2018-01-19T07:27:47.850Z,3.35
2018-01-19T07:28:53.803Z,3.39
2018-01-19T07:30:00.060Z,3.36
2018-01-19T07:31:06.356Z,3.27
2018-01-19T07:32:12.545Z,3.26
2018-01-19T07:33:18.800Z,3.19
2018-01-19T07:34:24.965Z,3.18
2018-01-19T07:35:31.303Z,3.22
2018-01-19T07:36:37.482Z,3.19
2018-01-19T07:37:43.719Z,3.23
2018-01-19T07:38:49.978Z,3.31
2018-01-19T07:39:55.987Z,3.36
2018-01-19T07:41:01.935Z,3.42
2018-01-19T07:42:07.915Z,3.43
2018-01-19T07:43:13.930Z,3.46
2018-01-19T07:44:20.047Z,3.39
2018-01-19T07:45:26.280Z,3.32
2018-01-19T07:46:32.522Z,3.35
2018-01-19T07:47:38.810Z,3.38
2018-01-19T07:48:45.034Z,3.39
2018-01-19T07:49:51.264Z,3.39
2018-01-19T07:51:02.652Z,3.40
2018-01-19T07:52:08.779Z,3.43
2018-01-19T07:53:14.906Z,3.44
2018-01-19T07:54:20.754Z,3.59
2018-01-19T07:55:27.012Z,3.58
2018-01-19T07:56:33.136Z,3.57
2018-01-19T07:57:38.990Z,3.62
2018-01-19T07:58:45.275Z,3.66
2018-01-19T07:59:51.479Z,3.74
2018-01-19T08:00:58.062Z,3.71
2018-01-19T08:02:04.261Z,3.81
2018-01-19T08:03:10.545Z,3.91
2018-01-19T08:04:17.070Z,3.82
2018-01-19T08:05:23.286Z,3.82
2018-01-19T08:06:29.448Z,3.86
2018-01-19T08:07:35.770Z,3.90
2018-01-19T08:08:42.012Z,3.96
2018-01-19T08:09:48.517Z,4.00
2018-01-19T08:10:54.717Z,4.01
2018-01-19T08:12:01.427Z,3.99
2018-01-19T08:13:07.760Z,4.01
2018-01-19T08:14:13.903Z,4.01
2018-01-19T08:15:20.164Z,3.99
2018-01-19T08:16:26.379Z,4.03
2018-01-19T08:17:32.620Z,4.07
2018-01-19T08:18:38.475Z,4.07
2018-01-19T08:19:44.904Z,4.12
2018-01-19T08:20:57.380Z,4.12
2018-01-19T08:22:03.694Z,4.19
2018-01-19T08:23:09.975Z,4.21
2018-01-19T08:24:16.380Z,4.21
2018-01-19T08:25:22.688Z,4.13
2018-01-19T08:26:28.993Z,4.09
2018-01-19T08:27:35.257Z,4.10
2018-01-19T08:28:46.559Z,4.11
2018-01-19T08:29:53.802Z,4.18
2018-01-19T08:31:00.286Z,4.08
2018-01-19T08:32:06.518Z,4.11
2018-01-19T08:33:12.763Z,4.10
2018-01-19T08:34:19.761Z,4.16
2018-01-19T08:35:26.378Z,4.23
2018-01-19T08:36:32.631Z,4.15
2018-01-19T08:37:39.332Z,4.10
2018-01-19T08:38:45.633Z,4.15
2018-01-19T08:39:51.934Z,4.15
2018-01-19T08:40:58.462Z,4.16
2018-01-19T08:42:04.730Z,4.16
2018-01-19T08:43:11.478Z,4.18
2018-01-19T08:44:17.755Z,4.04
2018-01-19T08:45:23.929Z,4.08
2018-01-19T08:46:30.216Z,4.01
2018-01-19T08:47:36.639Z,4.06
2018-01-19T08:48:43.355Z,4.07
2018-01-19T08:49:49.628Z,4.10
2018-01-19T08:50:55.910Z,4.16
2018-01-19T08:52:02.410Z,4.23
2018-01-19T08:53:08.707Z,4.25
2018-01-19T08:54:15.906Z,4.32
2018-01-19T08:55:24.721Z,4.31
2018-01-19T08:56:30.708Z,4.26
2018-01-19T08:57:36.955Z,4.32
2018-01-19T08:58:43.175Z,4.33
2018-01-19T08:59:49.406Z,4.38
2018-01-19T09:00:55.660Z,4.40
2018-01-19T09:02:01.998Z,4.42
2018-01-19T09:03:08.381Z,4.39
2018-01-19T09:04:14.633Z,4.26
2018-01-19T09:05:21.018Z,4.27
2018-01-19T09:06:28.145Z,4.28
2018-01-19T09:07:34.324Z,4.31
2018-01-19T09:08:40.934Z,4.32
2018-01-19T09:09:54.362Z,4.30
2018-01-19T09:11:03.146Z,4.42
2018-01-19T09:12:09.092Z,4.40
2018-01-19T09:13:15.074Z,4.37
2018-01-19T09:14:21.108Z,4.47
2018-01-19T09:15:27.498Z,4.48
2018-01-19T09:16:33.705Z,4.55
2018-01-19T09:17:39.602Z,4.58
2018-01-19T09:18:46.266Z,4.54
2018-01-19T09:19:54.449Z,4.54
2018-01-19T09:21:00.837Z,4.48
2018-01-19T09:22:07.059Z,4.45
2018-01-19T09:23:13.326Z,4.53
2018-01-19T09:24:20.491Z,4.39
2018-01-19T09:25:27.839Z,4.47
2018-01-19T09:26:34.038Z,4.52
2018-01-19T09:27:40.316Z,4.45
2018-01-19T09:28:46.657Z,4.49
2018-01-19T09:29:52.977Z,4.63
2018-01-19T09:30:59.152Z,4.70
2018-01-19T09:32:05.399Z,4.62
2018-01-19T09:33:11.635Z,4.64
2018-01-19T09:34:18.022Z,4.73
2018-01-19T09:35:24.355Z,4.75
2018-01-19T09:36:30.722Z,4.81
2018-01-19T09:37:36.931Z,4.82
2018-01-19T09:38:43.193Z,4.81
2018-01-19T09:39:49.474Z,4.86
2018-01-19T09:40:55.654Z,4.86
2018-01-19T09:42:02.294Z,4.85
2018-01-19T09:43:08.544Z,4.96
2018-01-19T09:44:14.718Z,5.06
2018-01-19T09:45:20.942Z,5.04
2018-01-19T09:46:27.122Z,5.01
2018-01-19T09:47:33.363Z,4.90
2018-01-19T09:48:39.648Z,4.92
2018-01-19T09:49:46.153Z,5.01
2018-01-19T09:50:52.127Z,5.06
2018-01-19T09:51:58.385Z,5.04
2018-01-19T09:53:04.639Z,5.10
2018-01-19T09:54:10.787Z,5.05
2018-01-19T09:55:17.165Z,5.03
2018-01-19T09:56:23.462Z,5.04
2018-01-19T09:57:30.539Z,5.12
2018-01-19T09:58:36.733Z,5.09
2018-01-19T09:59:43.059Z,5.09
2018-01-19T10:00:49.229Z,5.10
2018-01-19T10:01:55.414Z,5.11
2018-01-19T10:03:01.640Z,5.09
2018-01-19T10:04:07.821Z,5.11
2018-01-19T10:05:14.073Z,5.02
2018-01-19T10:06:20.470Z,5.02
2018-01-19T10:07:26.698Z,5.02
2018-01-19T10:08:32.920Z,5.11
2018-01-19T10:09:39.917Z,5.22
2018-01-19T10:10:46.118Z,5.18
2018-01-19T10:11:52.282Z,5.20
2018-01-19T10:12:58.518Z,5.15
2018-01-19T10:14:04.824Z,5.16
2018-01-19T10:15:10.950Z,5.23
2018-01-19T10:16:17.098Z,5.29
2018-01-19T10:17:23.427Z,5.16
2018-01-19T10:18:29.749Z,5.21
2018-01-19T10:19:35.991Z,5.19
2018-01-19T10:20:42.195Z,5.23
2018-01-19T10:21:48.604Z,5.13
2018-01-19T10:22:54.769Z,5.13
2018-01-19T10:24:01.105Z,5.19
2018-01-19T10:25:07.125Z,5.14
2018-01-19T10:26:13.330Z,5.19
2018-01-19T10:27:19.857Z,5.22
2018-01-19T10:28:26.117Z,5.27
2018-01-19T10:29:32.340Z,5.35
2018-01-19T10:30:38.542Z,5.33
2018-01-19T10:31:44.865Z,5.46
2018-01-19T10:32:51.010Z,5.37
2018-01-19T10:33:57.216Z,5.48
2018-01-19T10:35:03.749Z,5.40
2018-01-19T10:36:09.932Z,5.48
2018-01-19T10:37:16.183Z,5.51
2018-01-19T10:38:22.372Z,5.46
2018-01-19T10:39:28.800Z,5.56
2018-01-19T10:40:35.031Z,5.70
2018-01-19T10:41:41.317Z,5.74
2018-01-19T10:42:47.466Z,5.89
2018-01-19T10:43:53.631Z,6.07
2018-01-19T10:44:59.724Z,6.11
2018-01-19T10:46:05.882Z,5.99
2018-01-19T10:47:12.036Z,5.94
2018-01-19T10:48:18.315Z,5.89
2018-01-19T10:49:24.458Z,5.79
2018-01-19T10:50:30.738Z,5.54
2018-01-19T10:51:36.923Z,5.56
2018-01-19T10:52:42.885Z,5.65
2018-01-19T10:53:49.065Z,5.74
2018-01-19T10:54:55.189Z,5.53
2018-01-19T10:56:01.373Z,5.50
2018-01-19T10:57:07.739Z,5.55
2018-01-19T10:58:13.895Z,5.59
2018-01-19T10:59:20.108Z,5.49
2018-01-19T11:00:26.291Z,5.50
2018-01-19T11:01:32.433Z,5.55
2018-01-19T11:02:38.578Z,5.43
2018-01-19T11:03:44.944Z,5.47
2018-01-19T11:04:51.274Z,5.47
2018-01-19T11:05:57.507Z,5.37
2018-01-19T11:07:03.825Z,5.29
2018-01-19T11:08:09.984Z,5.37
2018-01-19T11:09:16.387Z,5.38
2018-01-19T11:10:22.530Z,5.44
2018-01-19T11:11:28.746Z,5.48
2018-01-19T11:12:34.996Z,5.57
2018-01-19T11:13:41.175Z,5.50
2018-01-19T11:14:47.410Z,5.61
2018-01-19T11:15:53.543Z,5.60
2018-01-19T11:17:01.505Z,5.62
2018-01-19T11:18:07.714Z,5.59
2018-01-19T11:19:13.741Z,5.59
2018-01-19T11:20:19.982Z,5.60
2018-01-19T11:21:26.122Z,5.36
2018-01-19T11:22:32.015Z,5.36
2018-01-19T11:23:38.228Z,5.29
2018-01-19T11:24:44.450Z,5.27
2018-01-19T11:25:50.703Z,5.26
2018-01-19T11:26:56.968Z,5.29
2018-01-19T11:28:03.229Z,5.38
2018-01-19T11:29:09.454Z,5.39
2018-01-19T11:30:15.729Z,5.19
2018-01-19T11:31:22.099Z,5.19
2018-01-19T11:32:28.251Z,5.16
2018-01-19T11:33:34.481Z,5.18
2018-01-19T11:34:40.683Z,5.22
2018-01-19T11:35:46.750Z,5.22
2018-01-19T11:36:53.089Z,5.28
2018-01-19T11:37:59.308Z,5.39
2018-01-19T11:39:04.749Z,5.27
2018-01-19T11:40:10.894Z,5.35
2018-01-19T11:41:17.300Z,5.46
2018-01-19T11:42:23.569Z,5.49
2018-01-19T11:43:29.714Z,5.52
2018-01-19T11:44:35.858Z,5.36
2018-01-19T11:45:41.787Z,5.36
2018-01-19T11:46:47.979Z,5.23
2018-01-19T11:47:54.700Z,5.05
2018-01-19T11:49:00.977Z,5.19
2018-01-19T11:50:07.027Z,5.32
2018-01-19T11:51:13.239Z,5.31
2018-01-19T11:52:19.267Z,5.39
2018-01-19T11:53:25.070Z,5.47
2018-01-19T11:54:31.290Z,5.42
2018-01-19T11:55:37.509Z,5.34
2018-01-19T11:56:45.064Z,5.38
2018-01-19T11:57:51.463Z,5.44
2018-01-19T11:58:57.680Z,5.57
2018-01-19T12:00:03.660Z,5.63
2018-01-19T12:01:09.856Z,5.52
2018-01-19T12:02:15.828Z,5.58
2018-01-19T12:03:22.040Z,5.27
2018-01-19T12:04:28.315Z,5.32
2018-01-19T12:05:34.569Z,5.38
2018-01-19T12:06:40.854Z,5.44
2018-01-19T12:07:47.125Z,5.29
2018-01-19T12:08:53.773Z,5.32
2018-01-19T12:30:38.195Z,4.85
2018-01-19T12:31:45.131Z,4.95
2018-01-19T12:32:51.505Z,4.98
2018-01-19T12:33:58.163Z,4.87
2018-01-19T12:35:05.759Z,4.96
2018-01-19T12:36:12.468Z,4.99
2018-01-19T12:37:19.546Z,4.98
2018-01-19T12:38:26.937Z,4.83
2018-01-19T12:39:34.899Z,4.83
2018-01-19T12:40:41.971Z,4.81
2018-01-19T12:41:50.373Z,4.89
2018-01-19T12:42:59.131Z,4.77
2018-01-19T12:44:07.875Z,4.70
2018-01-19T12:45:14.913Z,4.78
2018-01-19T12:46:21.873Z,4.73
2018-01-19T12:47:29.738Z,4.70
2018-01-19T12:48:37.686Z,4.75
2018-01-19T12:49:45.421Z,4.72
2018-01-19T12:50:52.851Z,4.71
2018-01-19T12:51:59.947Z,4.77
2018-01-19T12:53:08.374Z,4.84
2018-01-19T12:54:15.401Z,4.88
2018-01-19T12:55:21.853Z,4.99
2018-01-19T12:56:28.023Z,4.98
2018-01-19T12:57:34.368Z,4.98
2018-01-19T12:58:42.988Z,4.91
2018-01-19T12:59:50.554Z,4.86
2018-01-19T13:01:00.594Z,4.91
2018-01-19T13:02:11.941Z,5.06
2018-01-19T13:03:19.467Z,5.16
2018-01-19T13:04:28.338Z,5.18
2018-01-19T13:05:35.854Z,5.05
2018-01-19T13:06:43.840Z,4.99
2018-01-19T13:07:52.015Z,5.00
2018-01-19T13:09:01.117Z,5.10
2018-01-19T13:10:14.732Z,5.01
2018-01-19T13:11:21.684Z,5.00
2018-01-19T13:12:30.119Z,5.03
2018-01-19T13:13:39.101Z,5.05
2018-01-19T13:14:46.877Z,4.95
2018-01-19T13:15:55.007Z,4.77
2018-01-19T13:17:03.012Z,4.80
2018-01-19T13:18:10.271Z,4.89
2018-01-19T13:19:17.717Z,4.88
2018-01-19T13:20:27.243Z,4.77
2018-01-19T13:21:36.013Z,4.85
2018-01-19T13:22:44.853Z,4.89
2018-01-19T13:23:52.217Z,4.96
2018-01-19T13:25:00.322Z,4.99
2018-01-19T13:26:07.963Z,5.03
2018-01-19T13:27:15.990Z,5.02
2018-01-19T13:28:24.916Z,4.96
2018-01-19T13:29:33.253Z,4.99
2018-01-19T13:30:41.084Z,5.03
2018-01-19T13:31:49.903Z,5.09
2018-01-19T13:33:02.240Z,5.02
2018-01-19T13:34:10.398Z,4.97
2018-01-19T13:35:19.318Z,5.00
2018-01-19T13:36:27.505Z,5.04
2018-01-19T13:37:38.764Z,5.13
2018-01-19T13:38:47.813Z,5.08
2018-01-19T13:39:55.511Z,5.08
2018-01-19T13:41:01.716Z,5.01
2018-01-19T13:42:08.630Z,4.95
2018-01-19T13:43:15.763Z,5.02
2018-01-19T13:44:24.787Z,4.96
2018-01-19T13:45:32.168Z,5.00
2018-01-19T13:46:39.869Z,5.06
2018-01-19T13:47:49.061Z,5.03
2018-01-19T13:48:57.260Z,5.03
2018-01-19T13:50:05.172Z,5.08
2018-01-19T13:51:14.149Z,5.04
2018-01-19T13:52:22.491Z,5.01
2018-01-19T13:53:30.048Z,4.95
2018-01-19T13:54:37.474Z,4.84
2018-01-19T13:55:44.284Z,4.85
2018-01-19T13:56:50.501Z,4.77
2018-01-19T13:57:56.740Z,4.82
2018-01-19T13:59:04.240Z,4.80
2018-01-19T14:00:11.594Z,4.84
2018-01-19T14:01:18.423Z,4.76
2018-01-19T14:02:26.819Z,4.78
2018-01-19T14:03:33.692Z,4.71
2018-01-19T14:04:40.150Z,4.70
2018-01-19T14:05:46.385Z,4.73
2018-01-19T14:06:53.049Z,4.67
2018-01-19T14:07:59.337Z,4.70
2018-01-19T14:09:04.632Z,4.66
2018-01-19T14:10:10.508Z,4.67
2018-01-19T14:11:16.693Z,4.74
2018-01-19T14:12:23.655Z,4.77
2018-01-19T14:13:30.780Z,4.73
2018-01-19T14:14:38.278Z,4.80
2018-01-19T14:15:49.314Z,4.83
2018-01-19T14:16:56.092Z,4.85
2018-01-19T14:18:02.357Z,4.85
2018-01-19T14:19:08.963Z,4.87
2018-01-19T14:20:15.627Z,4.86
2018-01-19T14:21:23.747Z,4.93
2018-01-19T14:22:29.930Z,4.85
2018-01-19T14:23:36.112Z,4.82
2018-01-19T14:24:42.214Z,4.80
2018-01-19T14:25:48.508Z,4.82
2018-01-19T14:26:56.606Z,4.79
2018-01-19T14:28:02.903Z,4.74
2018-01-19T14:29:09.694Z,4.82
2018-01-19T14:30:15.904Z,4.78
2018-01-19T14:31:22.113Z,4.84
2018-01-19T14:32:28.268Z,4.83
2018-01-19T14:33:34.401Z,4.86
2018-01-19T14:34:40.578Z,4.83
2018-01-19T14:35:47.589Z,4.80
2018-01-19T14:36:55.100Z,4.87
2018-01-19T14:38:01.258Z,4.87
2018-01-19T14:39:07.548Z,4.89
2018-01-19T14:40:13.680Z,4.84
2018-01-19T14:41:19.792Z,4.82
2018-01-19T14:42:32.242Z,4.72
2018-01-19T14:43:38.351Z,4.71
2018-01-19T14:44:44.607Z,4.63
2018-01-19T14:45:52.961Z,4.60
2018-01-19T14:47:00.522Z,4.64
2018-01-19T14:48:06.337Z,4.71
2018-01-19T14:49:12.943Z,4.69
2018-01-19T14:50:19.374Z,4.68
2018-01-19T14:51:25.562Z,4.68
2018-01-19T14:52:32.705Z,4.62
2018-01-19T14:53:38.921Z,4.65
2018-01-19T14:54:45.475Z,4.57
2018-01-19T14:55:51.611Z,4.60
2018-01-19T14:56:57.875Z,4.72
2018-01-19T14:58:03.912Z,4.76
2018-01-19T14:59:10.111Z,4.68
2018-01-19T15:00:16.091Z,4.66
2018-01-19T15:01:22.274Z,4.67
2018-01-19T15:02:28.434Z,4.68
2018-01-19T15:03:34.690Z,4.62
2018-01-19T15:04:40.872Z,4.60
2018-01-19T15:05:48.142Z,4.55
2018-01-19T15:06:56.280Z,4.54
2018-01-19T15:08:03.211Z,4.48
2018-01-19T15:09:09.452Z,4.50